Time;durP1;ratioP1;P1;durP2;ratioP2;P2;SDS_P1;SDS_P2;PMS_P1;PMS_P2;Temp;Humidity;BMP_temperature;BMP_pressure;BME280_temperature;BME280_humidity;BME280_pressure;Samples;Min_cycle;Max_cycle;Signal;HPM_P1;HPM_P2
2024/01/11 00:00:29;;;;;;;;;;;-5.40;99.90;;;;;;4984385;28;19928;-73
2024/01/11 00:02:55;;;;;;;;;;;-5.40;99.90;;;;;;5011865;28;19928;-73
2024/01/11 00:05:21;;;;;;;;;;;-5.40;99.90;;;;;;4968392;28;19936;-71
2024/01/11 00:07:47;;;;;;;;;;;-5.50;99.90;;;;;;4973945;28;19929;-72
2024/01/11 00:10:13;;;;;;;;;;;-5.50;99.90;;;;;;4967353;28;19925;-72
2024/01/11 00:12:39;;;;;;;;;;;-5.40;99.90;;;;;;4998881;28;19960;-74
2024/01/11 00:15:05;;;;;;;;;;;-5.40;99.90;;;;;;4975959;28;20679;-72
2024/01/11 00:17:31;;;;;;;;;;;-5.40;99.90;;;;;;4984535;28;19940;-70
2024/01/11 00:19:57;;;;;;;;;;;-5.40;99.90;;;;;;4980544;28;19925;-72
2024/01/11 00:22:23;;;;;;;;;;;-5.40;99.90;;;;;;4964177;28;20239;-72
2024/01/11 00:24:49;;;;;;;;;;;-5.40;99.90;;;;;;4967820;28;20491;-72
2024/01/11 00:27:15;;;;;;;;;;;-5.40;99.90;;;;;;4986946;28;20230;-72
2024/01/11 00:29:41;;;;;;;;;;;-5.40;99.90;;;;;;4979486;28;19925;-73
2024/01/11 00:32:06;;;;;;;;;;;-5.40;99.90;;;;;;4987403;28;19929;-72
2024/01/11 00:34:32;;;;;;;;;;;-5.40;99.90;;;;;;4977199;28;19931;-73
2024/01/11 00:36:58;;;;;;;;;;;-5.40;99.90;;;;;;4976139;28;19929;-71
2024/01/11 00:39:24;;;;;;;;;;;-5.50;99.90;;;;;;4972996;28;20286;-73
2024/01/11 00:41:51;;;;;;;;;;;-5.50;99.90;;;;;;4966296;28;19925;-72
2024/01/11 00:44:17;;;;;;;;;;;-5.50;99.90;;;;;;4960115;28;19925;-71
2024/01/11 00:46:43;;;;;;;;;;;-5.40;99.90;;;;;;4988989;28;19925;-73
2024/01/11 00:49:09;;;;;;;;;;;-5.50;99.90;;;;;;4975583;28;19960;-72
2024/01/11 00:51:35;;;;;;;;;;;-5.50;99.90;;;;;;5005334;28;19929;-71
2024/01/11 00:54:00;;;;;;;;;;;-5.60;99.90;;;;;;4972300;28;21159;-72
2024/01/11 00:56:26;;;;;;;;;;;-5.60;99.90;;;;;;4976653;28;20972;-72
2024/01/11 00:58:52;;;;;;;;;;;-5.60;99.90;;;;;;4972723;28;19935;-71
2024/01/11 01:01:18;;;;;;;;;;;-5.60;99.90;;;;;;5012833;28;19931;-73
2024/01/11 01:03:44;;;;;;;;;;;-5.60;99.90;;;;;;4973018;28;19932;-72
2024/01/11 01:06:10;;;;;;;;;;;-5.60;99.90;;;;;;4993819;28;19924;-71
2024/01/11 01:08:36;;;;;;;;;;;-5.60;99.90;;;;;;4971466;28;21049;-71
2024/01/11 01:11:02;;;;;;;;;;;-5.70;99.90;;;;;;4998887;28;19924;-72
2024/01/11 01:13:28;;;;;;;;;;;-5.70;99.90;;;;;;4968104;28;19948;-72
2024/01/11 01:15:54;;;;;;;;;;;-5.60;99.90;;;;;;4984665;28;21550;-74
2024/01/11 01:18:20;;;;;;;;;;;-5.60;99.90;;;;;;5016415;28;20462;-74
2024/01/11 01:20:46;;;;;;;;;;;-5.70;99.90;;;;;;4953677;28;19952;-70
2024/01/11 01:23:12;;;;;;;;;;;-5.70;99.90;;;;;;4999094;28;20734;-72
2024/01/11 01:25:38;;;;;;;;;;;-5.70;99.90;;;;;;4970543;28;20307;-71
2024/01/11 01:28:04;;;;;;;;;;;-5.70;99.90;;;;;;5012560;28;19932;-72
2024/01/11 01:30:30;;;;;;;;;;;-5.70;99.90;;;;;;4969046;28;20303;-72
2024/01/11 01:32:56;;;;;;;;;;;-5.80;99.90;;;;;;4980474;28;19924;-72
2024/01/11 01:35:21;;;;;;;;;;;-5.80;99.90;;;;;;4966492;28;19983;-73
2024/01/11 01:37:47;;;;;;;;;;;-5.80;99.90;;;;;;5001461;28;19929;-71
2024/01/11 01:40:13;;;;;;;;;;;-5.80;99.90;;;;;;4977914;28;19948;-72
2024/01/11 01:42:43;;;;;;;;;;;-5.90;99.90;;;;;;4985147;28;20571;-73
2024/01/11 01:45:09;;;;;;;;;;;-5.90;99.90;;;;;;4971497;28;19951;-72
2024/01/11 01:47:36;;;;;;;;;;;-5.90;99.90;;;;;;4977858;28;21111;-72
2024/01/11 01:50:02;;;;;;;;;;;-5.90;99.90;;;;;;4975706;28;20486;-72
2024/01/11 01:52:28;;;;;;;;;;;-6.00;99.90;;;;;;5000627;28;19936;-73
2024/01/11 01:54:55;;;;;;;;;;;-6.00;99.90;;;;;;4977460;28;19928;-73
2024/01/11 01:57:21;;;;;;;;;;;-6.00;99.90;;;;;;4982415;28;20437;-72
2024/01/11 01:59:49;;;;;;;;;;;-6.00;99.90;;;;;;4971305;28;20865;-73
2024/01/11 02:02:15;;;;;;;;;;;-6.00;99.90;;;;;;4993076;28;19928;-73
2024/01/11 02:04:42;;;;;;;;;;;-6.00;99.90;;;;;;4959129;28;19925;-72
2024/01/11 02:07:08;;;;;;;;;;;-6.00;99.90;;;;;;4980648;28;19933;-71
2024/01/11 02:09:35;;;;;;;;;;;-6.00;99.90;;;;;;4970792;28;19925;-72
2024/01/11 02:12:02;;;;;;;;;;;-6.00;99.90;;;;;;4977547;28;19924;-72
2024/01/11 02:14:28;;;;;;;;;;;-6.00;99.90;;;;;;4971689;28;20418;-73
2024/01/11 02:16:54;;;;;;;;;;;-6.00;99.90;;;;;;4981004;28;19935;-72
2024/01/11 02:19:20;;;;;;;;;;;-6.00;99.90;;;;;;4968545;28;19925;-73
2024/01/11 02:21:48;;;;;;;;;;;-6.00;99.90;;;;;;5007462;28;20015;-72
2024/01/11 02:24:14;;;;;;;;;;;-6.00;99.90;;;;;;4956777;28;20336;-73
2024/01/11 02:27:02;;;;;;;;;;;-6.00;99.90;;;;;;4986937;28;19952;-73
2024/01/11 02:29:28;;;;;;;;;;;-6.00;99.90;;;;;;4951330;28;20466;-72
2024/01/11 02:31:55;;;;;;;;;;;-6.00;99.90;;;;;;4994461;28;20343;-73
2024/01/11 02:34:22;;;;;;;;;;;-6.00;99.90;;;;;;4975656;28;19924;-71
2024/01/11 02:36:48;;;;;;;;;;;-5.90;99.90;;;;;;4992094;28;19928;-72
2024/01/11 02:39:15;;;;;;;;;;;-5.90;99.90;;;;;;4964699;28;19925;-72
2024/01/11 02:41:42;;;;;;;;;;;-5.90;99.90;;;;;;4990837;28;20961;-72
2024/01/11 02:44:08;;;;;;;;;;;-5.80;99.90;;;;;;4954644;28;19925;-72
2024/01/11 02:46:33;;;;;;;;;;;-5.90;99.90;;;;;;4977472;28;20371;-71
2024/01/11 02:48:59;;;;;;;;;;;-5.80;99.90;;;;;;4973334;28;19931;-72
2024/01/11 02:51:25;;;;;;;;;;;-5.80;99.90;;;;;;4989851;28;19928;-72
2024/01/11 02:53:51;;;;;;;;;;;-5.80;99.90;;;;;;4954352;28;20235;-72
2024/01/11 02:56:17;;;;;;;;;;;-5.80;99.90;;;;;;4993047;28;19944;-73
2024/01/11 02:58:43;;;;;;;;;;;-5.80;99.90;;;;;;4969601;28;19928;-72
2024/01/11 03:01:09;;;;;;;;;;;-5.90;99.90;;;;;;4987750;28;20380;-72
2024/01/11 03:03:35;;;;;;;;;;;-5.80;99.90;;;;;;4970397;28;19932;-72
2024/01/11 03:06:01;;;;;;;;;;;-5.80;99.90;;;;;;4993604;28;21378;-72
2024/01/11 03:08:27;;;;;;;;;;;-5.80;99.90;;;;;;4971513;28;19983;-72
2024/01/11 03:10:53;;;;;;;;;;;-5.80;99.90;;;;;;4960650;28;19950;-73
2024/01/11 03:13:19;;;;;;;;;;;-5.80;99.90;;;;;;4996381;28;19928;-72
2024/01/11 03:15:44;;;;;;;;;;;-5.80;99.90;;;;;;4964742;28;19924;-71
2024/01/11 03:18:10;;;;;;;;;;;-5.90;99.90;;;;;;5016210;28;19951;-72
2024/01/11 03:20:36;;;;;;;;;;;-5.90;99.90;;;;;;4949771;28;20573;-72
2024/01/11 03:23:02;;;;;;;;;;;-5.90;99.90;;;;;;4999128;28;19967;-71
2024/01/11 03:25:31;;;;;;;;;;;-5.90;99.90;;;;;;4952833;28;19929;-71
2024/01/11 03:28:00;;;;;;;;;;;-5.90;99.90;;;;;;4976429;28;19932;-72
2024/01/11 03:30:26;;;;;;;;;;;-5.90;99.90;;;;;;4950047;28;19936;-71
2024/01/11 03:32:52;;;;;;;;;;;-5.90;99.90;;;;;;4996119;28;19943;-71
2024/01/11 03:35:18;;;;;;;;;;;-5.90;99.90;;;;;;4967210;28;19925;-71
2024/01/11 03:37:44;;;;;;;;;;;-5.80;99.90;;;;;;4978918;28;20415;-71
2024/01/11 03:40:10;;;;;;;;;;;-5.80;99.90;;;;;;4983356;28;19932;-71
2024/01/11 03:42:36;;;;;;;;;;;-5.70;99.90;;;;;;5000698;28;19928;-71
2024/01/11 03:45:03;;;;;;;;;;;-5.70;99.90;;;;;;4978588;28;20494;-71
2024/01/11 03:47:29;;;;;;;;;;;-5.70;99.90;;;;;;4981085;28;20891;-71
2024/01/11 03:49:55;;;;;;;;;;;-5.70;99.90;;;;;;4967487;28;20351;-72
2024/01/11 03:52:21;;;;;;;;;;;-5.70;99.90;;;;;;4978770;28;19952;-72
2024/01/11 03:54:47;;;;;;;;;;;-5.70;99.90;;;;;;4978182;28;20509;-72
2024/01/11 03:57:13;;;;;;;;;;;-5.80;99.90;;;;;;4984562;28;20849;-71
2024/01/11 03:59:39;;;;;;;;;;;-5.80;99.90;;;;;;4951903;28;19932;-72
2024/01/11 04:02:05;;;;;;;;;;;-5.80;99.90;;;;;;4993804;28;19928;-74
2024/01/11 04:04:31;;;;;;;;;;;-5.90;99.90;;;;;;4983286;28;20995;-75
2024/01/11 04:06:57;;;;;;;;;;;-5.90;99.90;;;;;;5010410;28;19983;-75
2024/01/11 04:09:23;;;;;;;;;;;-5.90;99.90;;;;;;4959039;28;19925;-76
2024/01/11 04:11:49;;;;;;;;;;;-6.00;99.90;;;;;;4996636;28;20389;-77
2024/01/11 04:14:15;;;;;;;;;;;-6.00;99.90;;;;;;4983612;28;19932;-74
2024/01/11 04:16:41;;;;;;;;;;;-6.00;99.90;;;;;;4973515;28;19925;-75
2024/01/11 04:19:07;;;;;;;;;;;-5.90;99.90;;;;;;4953789;28;19925;-74
2024/01/11 04:21:34;;;;;;;;;;;-5.90;99.90;;;;;;4994725;28;21052;-74
2024/01/11 04:24:00;;;;;;;;;;;-5.90;99.90;;;;;;4963736;28;19925;-75
2024/01/11 04:26:26;;;;;;;;;;;-5.90;99.90;;;;;;4972919;28;20517;-75
2024/01/11 04:28:52;;;;;;;;;;;-6.00;99.90;;;;;;4975647;28;19925;-75
2024/01/11 04:31:18;;;;;;;;;;;-6.00;99.90;;;;;;4980612;28;19928;-75
2024/01/11 04:33:45;;;;;;;;;;;-6.00;99.90;;;;;;4955211;28;20946;-75
2024/01/11 04:36:12;;;;;;;;;;;-6.00;99.90;;;;;;4982449;28;19939;-70
2024/01/11 04:38:38;;;;;;;;;;;-6.00;99.90;;;;;;4972617;28;19936;-71
2024/01/11 04:41:14;;;;;;;;;;;-5.90;99.90;;;;;;4984170;28;19935;-72
2024/01/11 04:43:40;;;;;;;;;;;-5.90;99.90;;;;;;4957581;28;19935;-72
2024/01/11 04:46:23;;;;;;;;;;;-5.90;99.90;;;;;;4998484;28;20041;-72
2024/01/11 04:48:49;;;;;;;;;;;-5.90;99.90;;;;;;4974650;28;19940;-72
2024/01/11 04:51:16;;;;;;;;;;;-5.90;99.90;;;;;;4994860;28;20665;-71
2024/01/11 04:53:42;;;;;;;;;;;-5.90;99.90;;;;;;4971999;28;20313;-70
2024/01/11 04:56:09;;;;;;;;;;;-5.80;99.90;;;;;;4982958;28;19925;-72
2024/01/11 04:58:35;;;;;;;;;;;-5.90;99.90;;;;;;4986975;28;20256;-70
2024/01/11 05:01:01;;;;;;;;;;;-5.90;99.90;;;;;;4995890;28;19932;-71
2024/01/11 05:03:27;;;;;;;;;;;-5.80;99.90;;;;;;4994348;28;19924;-71
2024/01/11 05:05:53;;;;;;;;;;;-5.70;99.90;;;;;;4974325;28;19924;-71
2024/01/11 05:08:19;;;;;;;;;;;-5.70;99.90;;;;;;5016811;28;21203;-70
2024/01/11 05:10:45;;;;;;;;;;;-5.60;99.90;;;;;;4939950;28;19936;-72
2024/01/11 05:13:11;;;;;;;;;;;-5.50;99.90;;;;;;4984338;28;19972;-72
2024/01/11 05:15:37;;;;;;;;;;;-5.40;99.90;;;;;;4985255;28;20958;-73
2024/01/11 05:18:03;;;;;;;;;;;-5.30;99.90;;;;;;5018981;28;19929;-72
2024/01/11 05:20:29;;;;;;;;;;;-5.20;99.90;;;;;;4975386;28;19932;-71
2024/01/11 05:22:55;;;;;;;;;;;-5.10;99.90;;;;;;5021369;28;21054;-73
2024/01/11 05:25:21;;;;;;;;;;;-5.00;99.90;;;;;;4967466;28;19931;-72
2024/01/11 05:27:47;;;;;;;;;;;-5.00;99.90;;;;;;5002167;28;19931;-71
2024/01/11 05:30:14;;;;;;;;;;;-4.90;99.90;;;;;;4970574;28;19925;-71
2024/01/11 05:32:40;;;;;;;;;;;-4.90;99.90;;;;;;4992477;28;19931;-71
2024/01/11 05:35:06;;;;;;;;;;;-4.80;99.90;;;;;;4949736;28;20399;-71
2024/01/11 05:37:32;;;;;;;;;;;-4.70;99.90;;;;;;5002791;28;19929;-71
2024/01/11 05:39:58;;;;;;;;;;;-4.60;99.90;;;;;;4983272;28;20660;-71
2024/01/11 05:42:24;;;;;;;;;;;-4.50;99.90;;;;;;5007315;28;20466;-72
2024/01/11 05:44:51;;;;;;;;;;;-4.40;99.90;;;;;;4984358;28;20746;-73
2024/01/11 05:47:17;;;;;;;;;;;-4.40;99.90;;;;;;4987986;28;19924;-71
2024/01/11 05:49:43;;;;;;;;;;;-4.30;99.90;;;;;;4960391;28;19924;-73
2024/01/11 05:52:09;;;;;;;;;;;-4.30;99.90;;;;;;4988313;28;19936;-71
2024/01/11 05:54:35;;;;;;;;;;;-4.20;99.90;;;;;;4974023;28;19968;-70
2024/01/11 05:57:04;;;;;;;;;;;-4.20;99.90;;;;;;5014981;28;20518;-70
2024/01/11 05:59:30;;;;;;;;;;;-4.10;99.90;;;;;;4980571;28;20005;-71
2024/01/11 06:02:00;;;;;;;;;;;-4.00;99.90;;;;;;5009092;28;19968;-71
2024/01/11 06:04:26;;;;;;;;;;;-3.90;99.90;;;;;;4959921;28;19929;-71
2024/01/11 06:06:52;;;;;;;;;;;-3.90;99.90;;;;;;4989851;28;19932;-73
2024/01/11 06:09:18;;;;;;;;;;;-3.80;99.90;;;;;;4986368;28;19968;-71
2024/01/11 06:11:44;;;;;;;;;;;-3.80;99.90;;;;;;4981156;28;19932;-71
2024/01/11 06:14:10;;;;;;;;;;;-3.70;99.90;;;;;;4959837;28;19963;-70
2024/01/11 06:16:36;;;;;;;;;;;-3.70;99.90;;;;;;4994001;28;19924;-70
2024/01/11 06:19:02;;;;;;;;;;;-3.60;99.90;;;;;;4974700;28;20008;-70
2024/01/11 06:21:28;;;;;;;;;;;-3.60;99.90;;;;;;5016951;28;20457;-72
2024/01/11 06:23:54;;;;;;;;;;;-3.50;99.90;;;;;;4966841;28;19928;-72
2024/01/11 06:26:20;;;;;;;;;;;-3.50;99.90;;;;;;5009479;28;20190;-72
2024/01/11 06:28:46;;;;;;;;;;;-3.40;99.90;;;;;;4973767;28;20418;-71
2024/01/11 06:31:12;;;;;;;;;;;-3.40;99.90;;;;;;5013506;28;19932;-71
2024/01/11 06:33:37;;;;;;;;;;;-3.40;99.90;;;;;;4970053;28;19924;-71
2024/01/11 06:36:10;;;;;;;;;;;-3.30;99.90;;;;;;4978272;28;19931;-73
2024/01/11 06:38:36;;;;;;;;;;;-3.20;99.90;;;;;;4950853;28;19959;-71
2024/01/11 06:41:02;;;;;;;;;;;-3.20;99.90;;;;;;5012139;28;19928;-71
2024/01/11 06:43:30;;;;;;;;;;;-3.10;99.90;;;;;;4990519;28;20316;-73
2024/01/11 06:45:56;;;;;;;;;;;-3.10;99.90;;;;;;4976620;28;19952;-70
2024/01/11 06:48:22;;;;;;;;;;;-3.10;99.90;;;;;;4978570;28;19936;-70
2024/01/11 06:50:48;;;;;;;;;;;-3.00;99.90;;;;;;4968872;28;19955;-71
2024/01/11 06:53:14;;;;;;;;;;;-3.00;99.90;;;;;;5011708;28;20147;-71
2024/01/11 06:55:42;;;;;;;;;;;-3.00;99.90;;;;;;4962748;28;19935;-68
2024/01/11 06:58:08;;;;;;;;;;;-2.90;99.90;;;;;;4982396;28;19935;-74
2024/01/11 07:00:34;;;;;;;;;;;-2.80;99.90;;;;;;4970663;28;20374;-75
2024/01/11 07:02:59;;;;;;;;;;;-2.80;99.90;;;;;;5001903;28;19924;-73
2024/01/11 07:05:25;;;;;;;;;;;-2.80;99.90;;;;;;4985967;28;19935;-75
2024/01/11 07:07:51;;;;;;;;;;;-2.70;99.90;;;;;;5000176;28;19936;-76
2024/01/11 07:10:17;;;;;;;;;;;-2.70;99.90;;;;;;4954386;28;19924;-77
2024/01/11 07:12:45;;;;;;;;;;;-2.70;99.90;;;;;;4982248;28;19931;-75
2024/01/11 07:15:11;;;;;;;;;;;-2.60;99.90;;;;;;4957974;28;19925;-74
2024/01/11 07:17:38;;;;;;;;;;;-2.60;99.90;;;;;;5003998;28;19929;-75
2024/01/11 07:20:04;;;;;;;;;;;-2.60;99.90;;;;;;4957435;28;20748;-75
2024/01/11 07:22:30;;;;;;;;;;;-2.60;99.90;;;;;;4985494;28;19924;-75
2024/01/11 07:24:56;;;;;;;;;;;-2.60;99.90;;;;;;4946369;28;19932;-75
2024/01/11 07:27:22;;;;;;;;;;;-2.60;99.90;;;;;;5004804;28;19929;-75
2024/01/11 07:29:48;;;;;;;;;;;-2.50;99.90;;;;;;4970322;28;20908;-74
2024/01/11 07:32:14;;;;;;;;;;;-2.50;99.90;;;;;;5013883;28;19924;-75
2024/01/11 07:34:40;;;;;;;;;;;-2.50;99.90;;;;;;4981473;28;19931;-75
2024/01/11 07:37:06;;;;;;;;;;;-2.50;99.90;;;;;;4970550;28;19962;-75
2024/01/11 07:39:32;;;;;;;;;;;-2.40;99.90;;;;;;4975450;28;19937;-74
2024/01/11 07:41:58;;;;;;;;;;;-2.40;99.90;;;;;;5004035;28;19925;-75
2024/01/11 07:44:24;;;;;;;;;;;-2.40;99.90;;;;;;4978216;28;20457;-75
2024/01/11 07:46:50;;;;;;;;;;;-2.30;99.90;;;;;;5000908;28;21069;-75
2024/01/11 07:49:16;;;;;;;;;;;-2.20;99.90;;;;;;4973967;28;19928;-75
2024/01/11 07:51:41;;;;;;;;;;;-2.20;99.90;;;;;;4985276;28;19924;-75
2024/01/11 07:54:07;;;;;;;;;;;-2.20;99.90;;;;;;4953582;28;20347;-75
2024/01/11 07:56:33;;;;;;;;;;;-2.10;99.90;;;;;;5004164;28;19925;-74
2024/01/11 07:59:00;;;;;;;;;;;-2.10;99.90;;;;;;4979920;28;20000;-75
2024/01/11 08:01:26;;;;;;;;;;;-2.10;99.90;;;;;;5016649;28;19925;-73
2024/01/11 08:03:52;;;;;;;;;;;-2.10;99.90;;;;;;4980112;28;20344;-75
2024/01/11 08:06:18;;;;;;;;;;;-2.10;99.90;;;;;;4997821;28;19975;-74
2024/01/11 08:08:44;;;;;;;;;;;-2.00;99.90;;;;;;4978991;28;19924;-74
2024/01/11 08:11:13;;;;;;;;;;;-2.00;99.90;;;;;;5012982;28;20693;-74
2024/01/11 08:13:39;;;;;;;;;;;-2.00;99.90;;;;;;4962082;28;19925;-74
2024/01/11 08:16:07;;;;;;;;;;;-2.00;99.90;;;;;;4998272;28;19924;-73
2024/01/11 08:18:34;;;;;;;;;;;-1.90;99.90;;;;;;4945287;28;19929;-73
2024/01/11 08:21:00;;;;;;;;;;;-1.90;99.90;;;;;;5017948;28;20430;-73
2024/01/11 08:23:26;;;;;;;;;;;-1.80;99.90;;;;;;4983776;28;20012;-73
2024/01/11 08:25:55;;;;;;;;;;;-1.80;99.90;;;;;;4961645;28;19932;-74
2024/01/11 08:28:21;;;;;;;;;;;-1.80;99.90;;;;;;5018708;28;20523;-73
2024/01/11 08:30:47;;;;;;;;;;;-1.80;99.90;;;;;;4985116;28;19938;-74
2024/01/11 08:33:13;;;;;;;;;;;-1.70;99.90;;;;;;5002572;28;19936;-74
2024/01/11 08:35:40;;;;;;;;;;;-1.60;99.90;;;;;;4972395;28;19932;-74
2024/01/11 08:38:06;;;;;;;;;;;-1.60;99.90;;;;;;4985867;28;19944;-75
2024/01/11 08:40:33;;;;;;;;;;;-1.50;99.90;;;;;;4972644;28;19924;-74
2024/01/11 08:42:59;;;;;;;;;;;-1.50;99.90;;;;;;5020506;28;19952;-74
2024/01/11 08:45:25;;;;;;;;;;;-1.50;99.90;;;;;;4972124;28;19944;-73
2024/01/11 08:47:51;;;;;;;;;;;-1.50;99.90;;;;;;4980719;28;19924;-74
2024/01/11 08:50:17;;;;;;;;;;;-1.40;99.90;;;;;;4957159;28;19925;-74
2024/01/11 08:52:43;;;;;;;;;;;-1.40;99.90;;;;;;5019108;28;19925;-74
2024/01/11 08:55:09;;;;;;;;;;;-1.30;99.90;;;;;;4987699;28;19925;-74
2024/01/11 08:57:35;;;;;;;;;;;-1.30;99.90;;;;;;5039560;28;20410;-74
2024/01/11 09:00:02;;;;;;;;;;;-1.20;99.90;;;;;;5026662;28;19920;-74
2024/01/11 09:02:28;;;;;;;;;;;-1.10;99.90;;;;;;5048538;28;19925;-75
2024/01/11 09:04:53;;;;;;;;;;;-1.10;99.90;;;;;;5026090;28;19929;-74
2024/01/11 09:07:19;;;;;;;;;;;-1.00;99.90;;;;;;5047253;28;20512;-74
2024/01/11 09:09:45;;;;;;;;;;;-1.00;99.90;;;;;;5021554;28;20034;-74
2024/01/11 09:12:11;;;;;;;;;;;-0.90;99.90;;;;;;5031326;28;19927;-74
2024/01/11 09:14:37;;;;;;;;;;;-0.90;99.90;;;;;;5031356;28;20380;-74
2024/01/11 09:17:06;;;;;;;;;;;-0.80;99.90;;;;;;5044552;28;19935;-75
2024/01/11 09:19:33;;;;;;;;;;;-0.70;99.90;;;;;;5024179;28;19928;-75
2024/01/11 09:21:59;;;;;;;;;;;-0.70;99.90;;;;;;5017106;28;19932;-75
2024/01/11 09:24:25;;;;;;;;;;;-0.60;99.90;;;;;;5018486;28;20315;-75
2024/01/11 09:26:51;;;;;;;;;;;-0.60;99.90;;;;;;5042345;28;19924;-75
2024/01/11 09:29:17;;;;;;;;;;;-0.60;99.90;;;;;;4984527;28;19928;-75
2024/01/11 09:31:43;;;;;;;;;;;-0.60;99.90;;;;;;5032431;28;21601;-76
2024/01/11 09:34:09;;;;;;;;;;;-0.50;99.90;;;;;;5000045;28;19924;-76
2024/01/11 09:36:38;;;;;;;;;;;-0.40;99.90;;;;;;5045802;28;20732;-76
2024/01/11 09:39:05;;;;;;;;;;;-0.40;99.90;;;;;;5016977;28;19925;-76
2024/01/11 09:41:31;;;;;;;;;;;-0.30;99.90;;;;;;5048462;28;19924;-76
2024/01/11 09:44:00;;;;;;;;;;;-0.30;99.90;;;;;;5001129;28;19941;-76
2024/01/11 09:46:27;;;;;;;;;;;-0.30;99.90;;;;;;4998774;28;19925;-76
2024/01/11 09:48:55;;;;;;;;;;;-0.20;99.90;;;;;;4960188;28;20025;-76
2024/01/11 09:51:21;;;;;;;;;;;-0.20;99.90;;;;;;4996650;28;19928;-76
2024/01/11 09:53:50;;;;;;;;;;;-0.20;99.90;;;;;;4990359;28;20434;-76
2024/01/11 09:56:16;;;;;;;;;;;-0.10;99.90;;;;;;4980873;28;19924;-76
2024/01/11 09:58:48;;;;;;;;;;;-0.10;99.90;;;;;;4975964;28;19940;-76
2024/01/11 10:01:14;;;;;;;;;;;-0.10;99.90;;;;;;4999359;28;19926;-75
2024/01/11 10:03:43;;;;;;;;;;;0.00;99.90;;;;;;4976844;28;19925;-75
2024/01/11 10:06:09;;;;;;;;;;;0.00;99.90;;;;;;5009837;28;19928;-74
2024/01/11 10:08:35;;;;;;;;;;;0.00;99.90;;;;;;4973561;28;20922;-76
2024/01/11 10:11:02;;;;;;;;;;;0.00;99.90;;;;;;4983195;28;20556;-76
2024/01/11 10:13:29;;;;;;;;;;;0.20;99.90;;;;;;4973063;28;19925;-76
2024/01/11 10:16:05;;;;;;;;;;;0.20;99.90;;;;;;4976554;28;19952;-76
2024/01/11 10:18:30;;;;;;;;;;;0.20;99.90;;;;;;4981107;28;19977;-76
2024/01/11 10:20:57;;;;;;;;;;;0.30;99.90;;;;;;5014336;28;20011;-76
2024/01/11 10:23:23;;;;;;;;;;;0.20;99.90;;;;;;4983879;28;19929;-77
2024/01/11 10:25:49;;;;;;;;;;;0.30;99.90;;;;;;4956143;28;19925;-77
2024/01/11 10:28:15;;;;;;;;;;;0.30;99.90;;;;;;5014962;28;20419;-76
2024/01/11 10:30:45;;;;;;;;;;;0.30;99.90;;;;;;4939385;28;20414;-77
2024/01/11 10:33:11;;;;;;;;;;;0.30;99.90;;;;;;5016559;28;19929;-76
2024/01/11 10:35:37;;;;;;;;;;;0.30;99.90;;;;;;4979854;28;21019;-77
2024/01/11 10:38:08;;;;;;;;;;;0.30;99.90;;;;;;5000882;28;20384;-78
2024/01/11 10:40:34;;;;;;;;;;;0.40;99.90;;;;;;4973457;28;19932;-76
2024/01/11 10:43:01;;;;;;;;;;;0.40;99.90;;;;;;5000260;28;19931;-76
2024/01/11 10:45:28;;;;;;;;;;;0.40;99.90;;;;;;4971441;28;19924;-76
2024/01/11 10:47:55;;;;;;;;;;;0.50;99.90;;;;;;4983703;28;19925;-75
2024/01/11 10:50:22;;;;;;;;;;;0.50;99.90;;;;;;4985291;28;19924;-75
2024/01/11 10:52:57;;;;;;;;;;;0.50;99.90;;;;;;4968140;28;19936;-77
2024/01/11 10:55:24;;;;;;;;;;;0.50;99.90;;;;;;4969370;28;19929;-77
2024/01/11 10:57:50;;;;;;;;;;;0.60;99.90;;;;;;4982956;28;19940;-76
2024/01/11 11:00:18;;;;;;;;;;;0.60;99.90;;;;;;4986435;28;19928;-76
2024/01/11 11:02:44;;;;;;;;;;;0.60;99.90;;;;;;4984465;28;19940;-77
2024/01/11 11:05:12;;;;;;;;;;;0.60;99.90;;;;;;4966465;28;19924;-78
2024/01/11 11:07:38;;;;;;;;;;;0.60;99.90;;;;;;4997867;28;19928;-77
2024/01/11 11:10:05;;;;;;;;;;;0.60;99.90;;;;;;4951340;28;19936;-79
2024/01/11 11:12:32;;;;;;;;;;;0.70;99.90;;;;;;5017086;28;20482;-78
2024/01/11 11:14:59;;;;;;;;;;;0.70;99.90;;;;;;4970309;28;19929;-78
2024/01/11 11:17:27;;;;;;;;;;;0.70;99.90;;;;;;5000124;28;20466;-78
2024/01/11 11:19:53;;;;;;;;;;;0.70;99.90;;;;;;4982104;28;20596;-78
2024/01/11 11:22:20;;;;;;;;;;;0.70;99.90;;;;;;4987687;28;19933;-78
2024/01/11 11:24:46;;;;;;;;;;;0.80;99.90;;;;;;4966926;28;19947;-70
2024/01/11 11:27:16;;;;;;;;;;;0.80;99.90;;;;;;5008358;28;20384;-79
2024/01/11 11:29:46;;;;;;;;;;;0.90;99.90;;;;;;4969412;28;19925;-79
2024/01/11 11:32:16;;;;;;;;;;;0.80;99.90;;;;;;5015679;28;20993;-79
2024/01/11 11:34:44;;;;;;;;;;;0.90;99.90;;;;;;4976963;28;19988;-79
2024/01/11 11:37:10;;;;;;;;;;;0.90;99.90;;;;;;5000255;28;19924;-77
2024/01/11 11:39:36;;;;;;;;;;;1.00;99.90;;;;;;4964681;28;20379;-79
2024/01/11 11:42:04;;;;;;;;;;;1.00;99.90;;;;;;4990593;28;19936;-79
2024/01/11 11:44:30;;;;;;;;;;;1.00;99.90;;;;;;4939926;28;20380;-78
2024/01/11 11:47:15;;;;;;;;;;;1.10;99.90;;;;;;4979594;28;20483;-78
2024/01/11 11:50:14;;;;;;;;;;;1.10;99.90;;;;;;4959971;28;19925;-77
2024/01/11 11:52:41;;;;;;;;;;;1.10;99.90;;;;;;4934728;28;19924;-78
2024/01/11 11:55:08;;;;;;;;;;;1.20;99.90;;;;;;4963913;28;19933;-79
2024/01/11 11:57:37;;;;;;;;;;;1.30;99.90;;;;;;4985442;28;20475;-78
2024/01/11 12:00:06;;;;;;;;;;;1.30;99.90;;;;;;4955001;28;19929;-78
2024/01/11 12:02:35;;;;;;;;;;;1.30;99.90;;;;;;4976825;28;20658;-78
2024/01/11 12:05:03;;;;;;;;;;;1.30;99.90;;;;;;4981523;28;19929;-77
2024/01/11 12:07:29;;;;;;;;;;;1.30;99.90;;;;;;4984091;28;19925;-78
2024/01/11 12:09:55;;;;;;;;;;;1.30;99.90;;;;;;4971007;28;20906;-78
2024/01/11 12:12:22;;;;;;;;;;;1.40;99.90;;;;;;5014176;28;19939;-77
2024/01/11 12:14:49;;;;;;;;;;;1.40;99.90;;;;;;4970159;28;20422;-78
2024/01/11 12:17:15;;;;;;;;;;;1.40;99.90;;;;;;5009638;28;19925;-77
2024/01/11 12:19:42;;;;;;;;;;;1.40;99.90;;;;;;4986204;28;19941;-77
2024/01/11 12:22:08;;;;;;;;;;;1.50;99.90;;;;;;5018699;28;20399;-78
2024/01/11 12:24:34;;;;;;;;;;;1.40;99.90;;;;;;4971314;28;19995;-79
2024/01/11 12:27:01;;;;;;;;;;;1.40;99.90;;;;;;4990083;28;20075;-78
2024/01/11 12:29:30;;;;;;;;;;;1.40;99.90;;;;;;4976861;28;20581;-77
2024/01/11 12:31:57;;;;;;;;;;;1.40;99.90;;;;;;4992768;28;19925;-77
2024/01/11 12:34:23;;;;;;;;;;;1.40;99.90;;;;;;4983555;28;20002;-78
2024/01/11 12:36:49;;;;;;;;;;;1.40;99.90;;;;;;5012761;28;20858;-78
2024/01/11 12:39:16;;;;;;;;;;;1.40;99.90;;;;;;4983625;28;19936;-78
2024/01/11 12:41:43;;;;;;;;;;;1.50;99.90;;;;;;5016355;28;19932;-78
2024/01/11 12:44:09;;;;;;;;;;;1.50;99.90;;;;;;4982139;28;19924;-78
2024/01/11 12:46:35;;;;;;;;;;;1.50;99.90;;;;;;4990659;28;19932;-77
2024/01/11 12:49:01;;;;;;;;;;;1.50;99.90;;;;;;4963987;28;19928;-78
2024/01/11 12:51:27;;;;;;;;;;;1.50;99.90;;;;;;5013698;28;20537;-77
2024/01/11 12:53:53;;;;;;;;;;;1.50;99.90;;;;;;4986395;28;19932;-78
2024/01/11 12:56:21;;;;;;;;;;;1.50;99.90;;;;;;5025679;28;19952;-78
2024/01/11 12:58:47;;;;;;;;;;;1.50;99.90;;;;;;4981503;28;19938;-77
2024/01/11 13:01:14;;;;;;;;;;;1.50;99.90;;;;;;5000144;28;20201;-77
2024/01/11 13:03:43;;;;;;;;;;;1.50;99.90;;;;;;4961057;28;19924;-78
2024/01/11 13:06:11;;;;;;;;;;;1.50;99.90;;;;;;4991376;28;19932;-78
2024/01/11 13:08:39;;;;;;;;;;;1.50;99.90;;;;;;4964416;28;19925;-79
2024/01/11 13:11:09;;;;;;;;;;;1.50;99.90;;;;;;5007073;28;20380;-78
2024/01/11 13:13:35;;;;;;;;;;;1.50;99.90;;;;;;4975931;28;19925;-77
2024/01/11 13:16:05;;;;;;;;;;;1.50;99.90;;;;;;5017068;28;19925;-78
2024/01/11 13:18:32;;;;;;;;;;;1.50;99.90;;;;;;4979564;28;19932;-75
2024/01/11 13:20:58;;;;;;;;;;;1.50;99.90;;;;;;4983944;28;19936;-76
2024/01/11 13:23:24;;;;;;;;;;;1.50;99.90;;;;;;4982793;28;19925;-76
2024/01/11 13:25:51;;;;;;;;;;;1.50;99.90;;;;;;4952662;28;19948;-74
2024/01/11 13:28:18;;;;;;;;;;;1.50;99.90;;;;;;4998404;28;19925;-74
2024/01/11 13:30:45;;;;;;;;;;;1.50;99.90;;;;;;4968290;28;20797;-76
2024/01/11 13:33:12;;;;;;;;;;;1.50;99.90;;;;;;4999458;28;21023;-74
2024/01/11 13:35:39;;;;;;;;;;;1.50;99.90;;;;;;4970601;28;19939;-75
2024/01/11 13:38:05;;;;;;;;;;;1.50;99.90;;;;;;5002291;28;19924;-76
2024/01/11 13:40:32;;;;;;;;;;;1.50;99.90;;;;;;4984008;28;19928;-75
2024/01/11 13:42:58;;;;;;;;;;;1.50;99.90;;;;;;4998812;28;20510;-76
2024/01/11 13:45:24;;;;;;;;;;;1.50;99.90;;;;;;4977637;28;19956;-76
2024/01/11 13:47:50;;;;;;;;;;;1.50;99.90;;;;;;4959688;28;19924;-76
2024/01/11 13:50:16;;;;;;;;;;;1.50;99.90;;;;;;4969862;28;19925;-75
2024/01/11 13:52:46;;;;;;;;;;;1.50;99.90;;;;;;4999708;28;19924;-75
2024/01/11 13:55:12;;;;;;;;;;;1.50;99.90;;;;;;4969703;28;19932;-76
2024/01/11 13:57:38;;;;;;;;;;;1.50;99.90;;;;;;5016423;28;20391;-76
2024/01/11 14:00:05;;;;;;;;;;;1.50;99.90;;;;;;4984085;28;20027;-75
2024/01/11 14:02:31;;;;;;;;;;;1.60;99.90;;;;;;5016410;28;19932;-76
2024/01/11 14:04:57;;;;;;;;;;;1.60;99.90;;;;;;4970984;28;19936;-76
2024/01/11 14:07:23;;;;;;;;;;;1.60;99.90;;;;;;4999498;28;19956;-76
2024/01/11 14:09:50;;;;;;;;;;;1.60;99.90;;;;;;4981920;28;20515;-76
2024/01/11 14:12:16;;;;;;;;;;;1.60;99.90;;;;;;4978767;28;19924;-75
2024/01/11 14:14:42;;;;;;;;;;;1.60;99.90;;;;;;4962834;28;19992;-76
2024/01/11 14:17:09;;;;;;;;;;;1.60;99.90;;;;;;4999238;28;19947;-77